Time;durP1;ratioP1;P1;durP2;ratioP2;P2;SDS_P1;SDS_P2;PMS_P1;PMS_P2;Temp;Humidity;BMP_temperature;BMP_pressure;BME280_temperature;BME280_humidity;BME280_pressure;Samples;Min_cycle;Max_cycle;Signal;HPM_P1;HPM_P2
2022/01/27 00:00:36;;;;;;;57.97;26.70;;;-0.70;80.00;;;;;;5053068;28;20071;-80
2022/01/27 00:05:38;;;;;;;60.53;27.88;;;-0.90;80.50;;;;;;5053403;28;20139;-80
2022/01/27 00:13:00;;;;;;;51.22;26.40;;;-0.90;79.70;;;;;;5054578;28;20056;-79
2022/01/27 00:15:31;;;;;;;49.78;24.75;;;-1.00;78.60;;;;;;5055025;28;20474;-80
2022/01/27 00:18:01;;;;;;;49.78;25.15;;;-1.00;78.30;;;;;;5053445;28;20103;-80
2022/01/27 00:20:27;;;;;;;48.65;25.42;;;-1.00;77.70;;;;;;5053557;28;20474;-80
2022/01/27 00:22:53;;;;;;;44.17;22.40;;;-1.00;77.10;;;;;;5053787;28;20124;-82
2022/01/27 00:25:18;;;;;;;44.70;23.35;;;-1.00;76.60;;;;;;5053864;28;20445;-80
2022/01/27 00:27:44;;;;;;;43.55;22.55;;;-1.10;76.50;;;;;;5057030;28;20029;-81
2022/01/27 00:30:10;;;;;;;44.33;23.77;;;-1.10;76.40;;;;;;5051718;28;20040;-81
2022/01/27 00:32:36;;;;;;;50.97;24.83;;;-1.20;76.60;;;;;;5051665;28;20027;-80
2022/01/27 00:35:04;;;;;;;51.63;25.60;;;-1.30;78.00;;;;;;5055867;28;20033;-81
2022/01/27 00:37:30;;;;;;;47.13;23.58;;;-1.40;79.00;;;;;;5054933;28;20078;-81
2022/01/27 00:39:55;;;;;;;47.20;23.40;;;-1.40;79.50;;;;;;5053487;28;20021;-80
2022/01/27 00:42:21;;;;;;;48.58;24.38;;;-1.30;79.50;;;;;;5053057;28;20435;-81
2022/01/27 00:44:47;;;;;;;51.28;25.17;;;-1.30;79.80;;;;;;5052821;28;20115;-80
2022/01/27 00:47:12;;;;;;;57.20;26.70;;;-1.20;80.00;;;;;;5053431;28;20060;-81
2022/01/27 00:49:38;;;;;;;54.67;25.73;;;-1.20;80.10;;;;;;5052868;28;20025;-80
2022/01/27 00:52:09;;;;;;;53.53;24.58;;;-1.20;80.30;;;;;;5052907;28;20374;-80
2022/01/27 00:54:34;;;;;;;56.20;26.55;;;-1.20;80.60;;;;;;5061609;28;20016;-79
2022/01/27 00:57:17;;;;;;;56.53;27.15;;;-1.10;80.90;;;;;;5070471;28;20037;-81
2022/01/27 00:59:54;;;;;;;52.67;26.52;;;-1.00;80.80;;;;;;5066165;28;20049;-82
2022/01/27 01:02:35;;;;;;;50.38;23.77;;;-0.90;80.70;;;;;;5053284;28;20091;-83
2022/01/27 01:07:54;;;;;;;50.40;23.75;;;-0.90;80.30;;;;;;5033157;28;20084;-83
2022/01/27 01:14:09;;;;;;;59.05;24.73;;;-0.90;79.70;;;;;;5052397;28;20478;-80
2022/01/27 01:16:06;;;;;;;50.83;24.42;;;-1.00;80.20;;;;;;5052143;28;20044;-82
2022/01/27 01:18:51;;;;;;;47.22;24.40;;;-1.40;80.70;;;;;;5053775;28;20044;-81
2022/01/27 01:21:41;;;;;;;52.42;25.02;;;-1.50;82.10;;;;;;5056121;28;20021;-81
2022/01/27 01:32:34;;;;;;;46.05;24.35;;;-1.50;82.60;;;;;;5056003;28;20025;-79
2022/01/27 01:35:01;;;;;;;47.00;23.65;;;-1.40;82.50;;;;;;5056480;28;20051;-80
2022/01/27 01:37:26;;;;;;;50.88;23.25;;;-1.30;82.50;;;;;;5056003;28;20075;-80
2022/01/27 01:39:52;;;;;;;44.08;21.23;;;-1.30;82.20;;;;;;5056460;28;20416;-81
2022/01/27 01:42:17;;;;;;;45.13;22.20;;;-1.20;81.90;;;;;;5056518;28;20025;-78
2022/01/27 01:44:45;;;;;;;47.95;23.30;;;-1.10;81.50;;;;;;5056697;28;20032;-80
2022/01/27 01:47:10;;;;;;;45.63;23.50;;;-1.10;81.10;;;;;;5054999;28;20017;-79
2022/01/27 01:49:36;;;;;;;48.67;23.90;;;-1.20;80.40;;;;;;5056676;28;20040;-81
2022/01/27 01:52:07;;;;;;;48.22;23.48;;;-1.30;80.20;;;;;;5056898;28;20088;-80
2022/01/27 01:54:33;;;;;;;53.00;25.65;;;-1.50;80.00;;;;;;5056469;28;20056;-81
2022/01/27 01:56:59;;;;;;;48.75;24.80;;;-1.60;80.30;;;;;;5056695;28;20087;-80
2022/01/27 01:59:25;;;;;;;61.97;24.67;;;-1.60;80.60;;;;;;5062660;28;20031;-80
2022/01/27 02:01:51;;;;;;;49.55;24.02;;;-1.70;80.60;;;;;;5056460;28;20021;-81
2022/01/27 02:04:17;;;;;;;48.25;23.75;;;-1.70;80.70;;;;;;5055793;28;20033;-80
2022/01/27 02:06:49;;;;;;;46.53;23.60;;;-1.70;80.60;;;;;;5055924;28;20021;-80
2022/01/27 02:20:06;;;;;;;51.95;25.25;;;-1.70;80.00;;;;;;5078458;28;20036;-79
2022/01/27 02:22:32;;;;;;;46.65;23.42;;;-1.70;79.50;;;;;;5073225;28;20033;-80
2022/01/27 02:24:57;;;;;;;44.17;22.85;;;-1.70;79.40;;;;;;5071668;28;20038;-78
2022/01/27 02:27:23;;;;;;;40.63;20.08;;;-1.70;79.20;;;;;;5065767;28;20104;-78
2022/01/27 02:29:49;;;;;;;37.40;18.90;;;-1.70;78.80;;;;;;5069777;28;20104;-80
2022/01/27 02:32:16;;;;;;;42.08;20.95;;;-1.80;78.00;;;;;;5056110;28;20028;-81
2022/01/27 02:34:43;;;;;;;33.30;18.73;;;-1.80;77.60;;;;;;5055253;28;20021;-79
2022/01/27 02:37:09;;;;;;;39.90;19.60;;;-1.80;77.60;;;;;;5054873;28;20025;-80
2022/01/27 02:39:35;;;;;;;34.42;18.85;;;-1.90;77.40;;;;;;5054513;28;20111;-79
2022/01/27 02:42:19;;;;;;;32.75;18.02;;;-1.90;76.70;;;;;;5054763;28;20148;-79
2022/01/27 02:44:54;;;;;;;31.38;17.95;;;-1.90;76.70;;;;;;5053027;28;20150;-78
2022/01/27 02:47:21;;;;;;;30.03;15.97;;;-1.90;76.70;;;;;;5054431;28;20025;-79
2022/01/27 02:49:47;;;;;;;29.52;17.25;;;-2.00;76.80;;;;;;5054303;28;20055;-80
2022/01/27 02:52:13;;;;;;;32.85;17.73;;;-1.90;77.00;;;;;;5054317;28;20025;-80
2022/01/27 02:54:39;;;;;;;32.67;18.38;;;-2.00;76.80;;;;;;5054253;28;20393;-80
2022/01/27 02:57:05;;;;;;;31.90;17.17;;;-2.00;76.70;;;;;;5054121;28;20025;-79
2022/01/27 02:59:31;;;;;;;33.03;18.67;;;-2.10;77.20;;;;;;5054239;28;20084;-79
2022/01/27 03:01:57;;;;;;;32.63;18.10;;;-2.20;77.70;;;;;;5054010;28;20028;-80
2022/01/27 03:04:23;;;;;;;32.03;18.42;;;-2.20;77.90;;;;;;5053956;28;20040;-79
2022/01/27 03:06:50;;;;;;;33.00;17.85;;;-2.20;78.70;;;;;;5053958;28;20466;-79
2022/01/27 03:09:16;;;;;;;33.78;18.10;;;-2.10;77.70;;;;;;5053922;28;20035;-79
2022/01/27 03:11:57;;;;;;;32.47;17.98;;;-2.00;77.30;;;;;;5052678;28;20017;-79
2022/01/27 03:14:24;;;;;;;33.53;18.63;;;-2.00;77.10;;;;;;5053917;28;20031;-79
2022/01/27 03:16:54;;;;;;;36.67;18.83;;;-1.90;77.10;;;;;;5053884;28;20017;-80
2022/01/27 03:19:20;;;;;;;35.45;19.35;;;-1.90;76.60;;;;;;5053844;28;20029;-79
2022/01/27 03:21:46;;;;;;;36.22;19.13;;;-1.90;76.30;;;;;;5053694;28;20433;-79
2022/01/27 03:24:12;;;;;;;37.92;18.92;;;-1.90;76.30;;;;;;5053300;28;20049;-78
2022/01/27 03:26:38;;;;;;;36.15;18.50;;;-1.90;76.20;;;;;;5053548;28;20060;-78
2022/01/27 03:29:04;;;;;;;38.97;19.55;;;-1.90;76.00;;;;;;5053547;28;20021;-78
2022/01/27 03:31:30;;;;;;;36.58;19.10;;;-1.90;75.90;;;;;;5053518;28;20020;-79
2022/01/27 03:33:55;;;;;;;41.47;20.85;;;-1.80;76.60;;;;;;5053496;28;20029;-80
2022/01/27 03:36:21;;;;;;;39.58;20.67;;;-1.80;75.40;;;;;;5053287;28;20052;-79
2022/01/27 03:38:48;;;;;;;37.95;20.30;;;-1.80;75.40;;;;;;5053408;28;20508;-79
2022/01/27 03:41:18;;;;;;;39.35;20.55;;;-1.90;75.40;;;;;;5053363;28;20021;-79
2022/01/27 03:43:46;;;;;;;40.05;21.63;;;-1.90;75.20;;;;;;5053378;28;20481;-79
2022/01/27 03:46:11;;;;;;;39.38;20.38;;;-1.90;75.10;;;;;;5053406;28;20036;-79
2022/01/27 03:48:37;;;;;;;42.25;20.98;;;-2.00;75.10;;;;;;5052049;28;20024;-80
2022/01/27 03:51:03;;;;;;;40.83;20.58;;;-2.10;75.40;;;;;;5053284;28;20074;-80
2022/01/27 03:53:30;;;;;;;37.67;20.42;;;-2.00;75.30;;;;;;5053339;28;20036;-79
2022/01/27 03:55:56;;;;;;;36.42;19.90;;;-2.00;75.10;;;;;;5051935;28;20029;-79
2022/01/27 03:58:21;;;;;;;40.47;20.95;;;-2.00;75.00;;;;;;5053200;28;20039;-81
2022/01/27 04:00:47;;;;;;;36.42;18.75;;;-2.00;74.40;;;;;;5053151;28;20025;-81
2022/01/27 04:03:15;;;;;;;35.47;18.85;;;-2.00;74.30;;;;;;5052973;28;20439;-80
2022/01/27 04:05:45;;;;;;;35.33;19.63;;;-2.00;74.50;;;;;;5051879;28;20048;-80
2022/01/27 04:08:13;;;;;;;36.40;18.83;;;-1.90;74.20;;;;;;5053164;28;20032;-80
2022/01/27 04:10:39;;;;;;;37.20;19.58;;;-1.90;74.00;;;;;;5053134;28;20035;-81
2022/01/27 04:13:06;;;;;;;40.08;21.13;;;-1.90;73.80;;;;;;5052962;28;20028;-81
2022/01/27 04:15:32;;;;;;;40.58;20.48;;;-1.90;73.80;;;;;;5052933;28;20496;-81
2022/01/27 04:17:58;;;;;;;35.35;19.23;;;-1.90;73.80;;;;;;5053185;28;20021;-80
2022/01/27 04:20:23;;;;;;;35.72;18.92;;;-1.90;73.80;;;;;;5052923;28;20146;-80
2022/01/27 04:22:49;;;;;;;37.97;18.95;;;-1.80;73.80;;;;;;5052799;28;20049;-81
2022/01/27 04:25:15;;;;;;;37.85;18.88;;;-1.80;73.60;;;;;;5052707;28;20041;-80
2022/01/27 04:27:47;;;;;;;34.55;17.85;;;-1.80;73.30;;;;;;5052951;28;20025;-80
2022/01/27 04:30:19;;;;;;;40.60;18.05;;;-1.80;73.20;;;;;;5052741;28;20027;-80
2022/01/27 04:32:50;;;;;;;37.80;18.05;;;-1.80;73.20;;;;;;5052823;28;20028;-80
2022/01/27 04:35:19;;;;;;;36.58;18.45;;;-1.90;73.20;;;;;;5052720;28;20029;-81
2022/01/27 04:38:10;;;;;;;38.47;18.85;;;-1.90;73.20;;;;;;5052721;28;20017;-80
2022/01/27 04:40:51;;;;;;;36.85;18.08;;;-2.00;73.20;;;;;;5052771;28;20094;-79
2022/01/27 04:48:25;;;;;;;39.80;19.73;;;-2.10;73.50;;;;;;5052554;28;20041;-79
2022/01/27 04:50:52;;;;;;;40.95;19.48;;;-2.20;73.70;;;;;;5052569;28;20021;-79
2022/01/27 04:53:28;;;;;;;40.65;19.23;;;-2.20;74.20;;;;;;5053585;28;20422;-79
2022/01/27 04:55:56;;;;;;;42.53;20.45;;;-2.20;74.50;;;;;;5055270;28;20020;-79
2022/01/27 04:58:29;;;;;;;37.78;17.67;;;-2.20;74.80;;;;;;5054932;28;20051;-79
2022/01/27 05:00:57;;;;;;;44.25;20.15;;;-2.20;74.50;;;;;;5056447;28;20470;-79
2022/01/27 05:03:34;;;;;;;70.10;30.67;;;-2.20;74.30;;;;;;5056089;28;20425;-79
2022/01/27 05:05:59;;;;;;;54.22;22.77;;;-2.20;74.20;;;;;;5054890;28;20061;-80
2022/01/27 05:08:25;;;;;;;54.38;24.77;;;-2.10;74.20;;;;;;5054868;28;20489;-80
2022/01/27 05:11:00;;;;;;;61.33;26.52;;;-2.20;74.00;;;;;;5056193;28;20029;-79
2022/01/27 05:13:28;;;;;;;48.90;22.20;;;-2.20;74.00;;;;;;5056152;28;20044;-80
2022/01/27 05:15:54;;;;;;;45.58;20.40;;;-2.20;74.40;;;;;;5056074;28;20488;-79
2022/01/27 05:18:20;;;;;;;41.58;20.27;;;-2.20;74.50;;;;;;5054682;28;20116;-80
2022/01/27 05:20:47;;;;;;;35.67;17.00;;;-2.10;74.70;;;;;;5056052;28;20021;-79
2022/01/27 05:23:12;;;;;;;31.63;15.95;;;-2.10;74.40;;;;;;5055621;28;20132;-79
2022/01/27 05:25:39;;;;;;;32.22;16.38;;;-2.00;74.20;;;;;;5055981;28;20288;-79
2022/01/27 05:28:06;;;;;;;28.88;15.40;;;-2.10;73.80;;;;;;5055744;28;20492;-79
2022/01/27 05:30:32;;;;;;;33.67;16.55;;;-2.10;73.80;;;;;;5055776;28;20151;-79
2022/01/27 05:32:57;;;;;;;32.88;16.27;;;-2.10;73.60;;;;;;5054328;28;20111;-79
2022/01/27 05:35:23;;;;;;;31.30;16.83;;;-2.00;73.30;;;;;;5055736;28;20025;-80
2022/01/27 05:37:48;;;;;;;34.63;18.23;;;-2.10;73.00;;;;;;5055704;28;20025;-80
2022/01/27 05:40:15;;;;;;;34.80;18.23;;;-2.10;73.10;;;;;;5055672;28;20021;-79
2022/01/27 05:42:40;;;;;;;41.28;20.27;;;-2.20;72.90;;;;;;5055598;28;20104;-79
2022/01/27 05:45:06;;;;;;;40.42;19.65;;;-2.30;73.10;;;;;;5055474;28;20148;-83
2022/01/27 05:47:32;;;;;;;44.70;20.77;;;-2.40;73.20;;;;;;5055453;28;20063;-80
2022/01/27 05:49:58;;;;;;;42.53;21.10;;;-2.40;73.60;;;;;;5054039;28;20036;-79
2022/01/27 05:52:23;;;;;;;42.38;20.20;;;-2.30;73.80;;;;;;5055305;28;20041;-79
2022/01/27 05:54:49;;;;;;;40.35;21.15;;;-2.40;73.50;;;;;;5055322;28;20028;-80
2022/01/27 05:57:14;;;;;;;42.30;19.80;;;-2.30;74.20;;;;;;5055007;28;20116;-79
2022/01/27 05:59:40;;;;;;;43.92;22.70;;;-2.40;73.80;;;;;;5055137;28;20056;-79
2022/01/27 06:02:06;;;;;;;38.38;19.95;;;-2.40;73.90;;;;;;5055054;28;20025;-81
2022/01/27 06:04:32;;;;;;;38.95;19.45;;;-2.40;74.00;;;;;;5054054;28;20033;-79
2022/01/27 06:06:57;;;;;;;44.92;20.05;;;-2.40;74.00;;;;;;5054769;28;20029;-79
2022/01/27 06:09:23;;;;;;;39.08;18.30;;;-2.50;74.20;;;;;;5055060;28;20435;-79
2022/01/27 06:11:50;;;;;;;40.70;20.45;;;-2.60;74.30;;;;;;5054885;28;20095;-78
2022/01/27 06:14:16;;;;;;;41.03;20.67;;;-2.50;74.60;;;;;;5054705;28;20029;-78
2022/01/27 06:16:44;;;;;;;44.22;21.17;;;-2.60;74.80;;;;;;5054630;28;20412;-78
2022/01/27 06:19:09;;;;;;;42.60;20.20;;;-2.70;75.00;;;;;;5053270;28;20048;-79
2022/01/27 06:21:35;;;;;;;40.17;18.92;;;-2.70;75.30;;;;;;5054677;28;20450;-79
2022/01/27 06:24:02;;;;;;;43.88;20.30;;;-2.70;75.40;;;;;;5054334;28;20091;-78
2022/01/27 06:26:29;;;;;;;41.67;18.15;;;-2.60;75.20;;;;;;5054923;28;20477;-81
2022/01/27 06:28:55;;;;;;;34.78;17.38;;;-2.60;74.80;;;;;;5054534;28;20021;-80
2022/01/27 06:31:21;;;;;;;35.70;17.20;;;-2.60;74.50;;;;;;5054889;28;20659;-79
2022/01/27 06:33:47;;;;;;;36.92;17.95;;;-2.50;74.40;;;;;;5054661;28;20424;-79
2022/01/27 06:36:12;;;;;;;37.78;18.45;;;-2.60;74.40;;;;;;5053544;28;20028;-81
2022/01/27 06:38:38;;;;;;;39.38;19.55;;;-2.60;74.50;;;;;;5054776;28;20655;-80
2022/01/27 06:41:03;;;;;;;35.03;17.92;;;-2.50;74.60;;;;;;5053805;28;20021;-81
2022/01/27 06:43:29;;;;;;;35.28;17.45;;;-2.50;74.50;;;;;;5056066;28;20032;-81
2022/01/27 06:45:54;;;;;;;36.17;17.38;;;-2.40;74.40;;;;;;5074614;28;20123;-80
2022/01/27 06:48:20;;;;;;;37.83;17.88;;;-2.40;74.40;;;;;;5072523;28;20025;-80
2022/01/27 06:50:51;;;;;;;37.30;18.55;;;-2.40;74.40;;;;;;5065257;28;20025;-81
2022/01/27 06:53:16;;;;;;;37.38;18.50;;;-2.40;74.40;;;;;;5053873;28;20021;-81
2022/01/27 06:55:42;;;;;;;32.63;17.25;;;-2.30;74.30;;;;;;5056828;28;20075;-81
2022/01/27 06:58:07;;;;;;;31.20;16.25;;;-2.30;74.00;;;;;;5057829;28;20126;-81
2022/01/27 07:00:33;;;;;;;51.92;22.23;;;-2.40;73.70;;;;;;5053129;28;20028;-81
2022/01/27 07:02:58;;;;;;;51.80;25.10;;;-2.50;73.70;;;;;;5053803;28;20064;-81
2022/01/27 07:05:24;;;;;;;54.20;26.48;;;-2.50;74.00;;;;;;5054065;28;20094;-82
2022/01/27 07:07:50;;;;;;;41.90;21.77;;;-2.50;73.90;;;;;;5054034;28;20021;-81
2022/01/27 07:10:15;;;;;;;40.47;21.73;;;-2.60;74.10;;;;;;5054409;28;20503;-81
2022/01/27 07:12:41;;;;;;;46.42;22.83;;;-2.50;74.30;;;;;;5053821;28;20028;-80
2022/01/27 07:15:08;;;;;;;46.45;22.23;;;-2.40;74.30;;;;;;5052602;28;20143;-80
2022/01/27 07:17:33;;;;;;;50.45;24.80;;;-2.40;74.30;;;;;;5053323;28;20059;-80
2022/01/27 07:19:59;;;;;;;62.78;27.73;;;-2.40;74.20;;;;;;5053439;28;20493;-80
2022/01/27 07:22:24;;;;;;;67.80;29.25;;;-2.40;74.30;;;;;;5052186;28;20017;-80
2022/01/27 07:24:50;;;;;;;66.28;30.80;;;-2.30;73.90;;;;;;5053207;28;20095;-81
2022/01/27 07:27:17;;;;;;;55.47;25.70;;;-2.40;74.00;;;;;;5053554;28;20025;-80
2022/01/27 07:29:42;;;;;;;50.90;23.63;;;-2.40;74.30;;;;;;5053448;28;20025;-81
2022/01/27 07:32:08;;;;;;;45.55;20.35;;;-2.40;74.50;;;;;;5053547;28;20079;-81
2022/01/27 07:34:33;;;;;;;42.53;19.80;;;-2.30;74.90;;;;;;5053700;28;20017;-80
2022/01/27 07:37:01;;;;;;;46.55;21.00;;;-2.30;75.30;;;;;;5053617;28;20090;-82
2022/01/27 07:39:27;;;;;;;48.38;22.92;;;-2.30;75.30;;;;;;5053586;28;20024;-80
2022/01/27 07:41:53;;;;;;;43.50;20.88;;;-2.20;74.90;;;;;;5053472;28;20346;-79
2022/01/27 07:44:18;;;;;;;43.63;20.10;;;-2.30;74.90;;;;;;5053459;28;20115;-83
2022/01/27 07:46:44;;;;;;;53.20;19.98;;;-1.70;86.20;;;;;;5053672;28;20052;-84
2022/01/27 07:49:09;;;;;;;38.75;17.80;;;-1.30;84.70;;;;;;5053610;28;20120;-88
2022/01/27 07:51:35;;;;;;;35.70;17.52;;;-0.90;81.90;;;;;;5053439;28;20024;-89
2022/01/27 07:54:01;;;;;;;36.40;17.42;;;-0.20;83.30;;;;;;5052505;28;20029;-80
2022/01/27 07:56:26;;;;;;;34.55;16.02;;;0.30;79.80;;;;;;5053121;28;20044;-80
2022/01/27 07:58:52;;;;;;;34.47;16.77;;;0.10;74.10;;;;;;5051691;28;20389;-80
2022/01/27 08:01:18;;;;;;;33.85;15.80;;;0.00;71.50;;;;;;5052838;28;20025;-80
2022/01/27 08:03:43;;;;;;;26.55;14.73;;;-0.10;70.90;;;;;;5051187;28;20025;-80
2022/01/27 08:06:09;;;;;;;32.40;15.50;;;-0.20;70.50;;;;;;5052777;28;20080;-81
2022/01/27 08:08:35;;;;;;;34.47;16.85;;;-0.20;69.70;;;;;;5051455;28;20551;-80
2022/01/27 08:11:02;;;;;;;35.65;15.20;;;-0.30;69.60;;;;;;5052656;28;20024;-81
2022/01/27 08:13:27;;;;;;;27.40;14.13;;;-0.30;69.00;;;;;;5052518;28;20382;-81
2022/01/27 08:15:53;;;;;;;32.70;15.50;;;-0.40;69.30;;;;;;5051014;28;20021;-81
2022/01/27 08:18:20;;;;;;;39.65;20.17;;;-0.40;69.20;;;;;;5052431;28;20109;-80
2022/01/27 08:20:46;;;;;;;37.28;18.58;;;-0.40;69.10;;;;;;5051238;28;20539;-80
2022/01/27 08:23:13;;;;;;;33.55;17.08;;;-0.40;69.20;;;;;;5052489;28;20040;-81
2022/01/27 08:25:40;;;;;;;38.10;18.75;;;-0.40;69.20;;;;;;5052781;28;20033;-80
2022/01/27 08:28:15;;;;;;;38.38;18.85;;;-0.40;69.20;;;;;;5051975;28;20025;-80
2022/01/27 08:30:46;;;;;;;37.45;18.20;;;-0.40;69.60;;;;;;5057097;28;20053;-82
2022/01/27 08:33:17;;;;;;;36.75;17.45;;;-0.30;69.80;;;;;;5056917;28;20017;-81
2022/01/27 08:35:42;;;;;;;35.17;17.55;;;-0.30;69.80;;;;;;5057056;28;20017;-81
2022/01/27 08:38:08;;;;;;;36.35;17.83;;;-0.20;69.50;;;;;;5056796;28;20519;-81
2022/01/27 08:40:34;;;;;;;34.55;16.38;;;-0.10;70.20;;;;;;5056630;28;20037;-80
2022/01/27 08:43:00;;;;;;;30.63;16.50;;;0.10;70.10;;;;;;5056770;28;20036;-80
2022/01/27 08:45:26;;;;;;;35.75;17.67;;;0.20;69.70;;;;;;5056569;28;20036;-81
2022/01/27 08:47:54;;;;;;;35.50;18.95;;;0.30;69.30;;;;;;5056560;28;20052;-79
2022/01/27 08:50:22;;;;;;;33.70;17.10;;;0.40;68.60;;;;;;5056725;28;20147;-81
2022/01/27 08:52:47;;;;;;;32.55;16.80;;;0.40;68.20;;;;;;5056831;28;20423;-80
2022/01/27 08:55:13;;;;;;;29.05;14.18;;;0.50;67.50;;;;;;5055181;28;20017;-80
2022/01/27 08:57:39;;;;;;;30.10;14.45;;;0.40;67.10;;;;;;5056457;28;20033;-80
2022/01/27 09:00:08;;;;;;;25.25;13.88;;;0.40;66.70;;;;;;5055258;28;20516;-79
2022/01/27 09:02:34;;;;;;;25.08;13.38;;;0.40;66.50;;;;;;5055486;28;20025;-80
2022/01/27 09:04:59;;;;;;;27.98;12.90;;;0.50;66.30;;;;;;5054801;28;20110;-80
2022/01/27 09:07:25;;;;;;;28.38;14.40;;;0.50;66.10;;;;;;5056401;28;20052;-80
2022/01/27 09:09:51;;;;;;;25.25;13.70;;;0.60;66.10;;;;;;5055828;28;20029;-81
2022/01/27 09:12:17;;;;;;;24.55;12.15;;;0.80;65.80;;;;;;5056820;28;20099;-81
2022/01/27 09:14:43;;;;;;;27.65;13.95;;;0.90;65.50;;;;;;5057454;28;20107;-79
2022/01/27 09:17:12;;;;;;;25.85;13.32;;;1.10;65.20;;;;;;5057091;28;20207;-79
2022/01/27 09:19:43;;;;;;;26.23;13.95;;;1.20;64.50;;;;;;5060537;28;20056;-80
2022/01/27 09:22:13;;;;;;;25.48;14.05;;;1.10;64.40;;;;;;5064354;28;20048;-80
2022/01/27 09:25:04;;;;;;;27.85;14.90;;;1.10;64.50;;;;;;5078097;28;20036;-79
2022/01/27 09:27:30;;;;;;;22.42;12.35;;;1.30;64.30;;;;;;5079501;28;20036;-79
2022/01/27 09:29:56;;;;;;;24.52;12.85;;;1.40;63.10;;;;;;5078774;28;20053;-80
2022/01/27 09:32:24;;;;;;;27.58;13.93;;;1.30;62.80;;;;;;5078439;28;20032;-79
2022/01/27 09:34:50;;;;;;;30.05;14.45;;;1.50;62.90;;;;;;5078371;28;20029;-81
2022/01/27 09:37:15;;;;;;;27.52;13.60;;;1.30;64.00;;;;;;5077469;28;20034;-81
2022/01/27 09:39:42;;;;;;;26.85;13.02;;;1.50;64.10;;;;;;5075458;28;20013;-81
2022/01/27 09:42:08;;;;;;;24.27;11.90;;;1.70;62.90;;;;;;5063651;28;20020;-81
2022/01/27 09:44:36;;;;;;;22.50;12.38;;;2.00;62.10;;;;;;5057258;28;20041;-80
2022/01/27 09:47:08;;;;;;;27.00;13.65;;;2.10;60.80;;;;;;5054824;28;20025;-80
2022/01/27 09:52:00;;;;;;;25.60;13.30;;;2.70;59.00;;;;;;5055802;28;20071;-80
2022/01/27 09:54:26;;;;;;;26.90;12.93;;;2.90;57.80;;;;;;5055924;28;20029;-80
2022/01/27 09:56:53;;;;;;;30.10;14.18;;;3.00;57.30;;;;;;5055659;28;20500;-79
2022/01/27 09:59:21;;;;;;;29.05;12.98;;;3.30;57.10;;;;;;5055974;28;20442;-80
2022/01/27 10:02:02;;;;;;;25.92;12.73;;;3.30;57.10;;;;;;5055755;28;20432;-79
2022/01/27 10:04:47;;;;;;;25.88;13.23;;;3.40;57.10;;;;;;5057009;28;20033;-78
2022/01/27 10:07:18;;;;;;;28.33;13.38;;;3.70;56.60;;;;;;5055888;28;20028;-78
2022/01/27 10:09:56;;;;;;;25.88;13.65;;;3.90;55.30;;;;;;5055443;28;20017;-81
2022/01/27 10:12:37;;;;;;;24.33;12.90;;;4.10;54.00;;;;;;5054669;28;20383;-81
2022/01/27 10:15:07;;;;;;;26.85;12.93;;;4.50;53.50;;;;;;5060538;28;20031;-79
2022/01/27 10:17:37;;;;;;;26.65;13.90;;;4.60;52.30;;;;;;5067127;28;20389;-79
2022/01/27 10:20:13;;;;;;;27.73;14.82;;;4.90;51.00;;;;;;5055144;28;20028;-81
2022/01/27 10:22:39;;;;;;;35.13;17.95;;;4.70;51.00;;;;;;5054003;28;20108;-80
2022/01/27 10:25:10;;;;;;;33.45;16.67;;;4.60;51.10;;;;;;5055520;28;20120;-81
2022/01/27 10:30:50;;;;;;;35.42;19.38;;;4.50;52.00;;;;;;5055625;28;20124;-79
2022/01/27 10:32:54;;;;;;;36.00;17.63;;;4.70;51.70;;;;;;5043906;28;20075;-80
2022/01/27 10:35:23;;;;;;;37.45;18.92;;;4.90;50.70;;;;;;5054666;28;20020;-80
2022/01/27 10:37:52;;;;;;;37.78;18.65;;;4.80;50.40;;;;;;5054665;28;20024;-79
2022/01/27 10:40:39;;;;;;;33.08;17.98;;;5.00;49.50;;;;;;5053058;28;20025;-79
2022/01/27 10:43:10;;;;;;;35.53;17.65;;;5.00;49.40;;;;;;5054247;28;20021;-81
2022/01/27 10:45:40;;;;;;;35.63;19.08;;;4.90;50.80;;;;;;5054418;28;20036;-79
2022/01/27 10:48:12;;;;;;;38.42;18.38;;;4.70;51.20;;;;;;5054496;28;20013;-79
2022/01/27 10:50:48;;;;;;;41.42;20.90;;;5.10;50.40;;;;;;5057504;28;20374;-79
2022/01/27 10:53:14;;;;;;;39.03;20.23;;;5.40;49.40;;;;;;5054520;28;20036;-80
2022/01/27 10:55:40;;;;;;;38.42;18.40;;;5.60;48.80;;;;;;5054390;28;20037;-80
2022/01/27 10:58:25;;;;;;;46.10;21.65;;;5.70;48.30;;;;;;5054289;28;20091;-78
2022/01/27 11:01:00;;;;;;;38.28;19.17;;;6.00;47.30;;;;;;5053995;28;20021;-82
2022/01/27 11:03:27;;;;;;;42.10;20.13;;;6.30;46.80;;;;;;5053774;28;20474;-79
2022/01/27 11:05:54;;;;;;;41.42;20.88;;;6.40;46.10;;;;;;5054026;28;20033;-77
2022/01/27 11:08:21;;;;;;;42.47;20.58;;;6.30;45.60;;;;;;5052574;28;20031;-81
2022/01/27 11:10:49;;;;;;;37.95;19.92;;;5.70;46.90;;;;;;5053739;28;20029;-78
2022/01/27 11:13:20;;;;;;;40.00;19.77;;;5.40;48.80;;;;;;5053437;28;20427;-78
2022/01/27 11:15:46;;;;;;;41.00;19.50;;;5.90;48.70;;;;;;5053665;28;20108;-78
2022/01/27 11:18:16;;;;;;;32.53;17.98;;;6.10;47.10;;;;;;5050069;28;20053;-74
2022/01/27 11:21:01;;;;;;;45.05;21.02;;;6.00;47.10;;;;;;5046587;28;20025;-76
2022/01/27 11:26:08;;;;;;;36.00;19.58;;;6.60;46.60;;;;;;5053961;28;20431;-76
2022/01/27 11:28:35;;;;;;;41.38;19.70;;;6.80;44.70;;;;;;5053237;28;20021;-78
2022/01/27 11:31:13;;;;;;;38.28;18.95;;;7.10;44.00;;;;;;5051505;28;20033;-76
2022/01/27 11:33:41;;;;;;;40.35;19.38;;;6.70;45.10;;;;;;5052914;28;20021;-74
2022/01/27 11:36:14;;;;;;;45.28;20.77;;;7.00;45.00;;;;;;5052907;28;20033;-74
2022/01/27 11:38:45;;;;;;;35.47;18.20;;;6.80;44.70;;;;;;5052731;28;20493;-76
2022/01/27 11:41:36;;;;;;;40.22;20.08;;;6.90;44.80;;;;;;5053029;28;20021;-75
2022/01/27 11:44:37;;;;;;;35.92;18.05;;;6.60;44.70;;;;;;5052772;28;20025;-77
2022/01/27 11:47:09;;;;;;;37.80;19.83;;;5.90;46.40;;;;;;5051979;28;20064;-77
2022/01/27 11:50:00;;;;;;;43.28;19.35;;;5.70;49.40;;;;;;5052798;28;20017;-77
2022/01/27 11:52:32;;;;;;;26.35;13.38;;;5.30;49.60;;;;;;5051298;28;20486;-77
2022/01/27 11:55:23;;;;;;;26.20;13.55;;;4.90;51.20;;;;;;5057170;28;20048;-75
2022/01/27 11:57:49;;;;;;;25.95;13.30;;;4.20;53.40;;;;;;5057358;28;20017;-76
2022/01/27 12:00:17;;;;;;;24.70;11.73;;;3.50;60.10;;;;;;5054513;28;20427;-78
2022/01/27 12:03:01;;;;;;;28.80;13.63;;;3.20;63.80;;;;;;5052940;28;20378;-75
2022/01/27 12:05:30;;;;;;;27.17;13.63;;;3.10;65.50;;;;;;5053059;28;20037;-77
2022/01/27 12:08:17;;;;;;;27.58;13.63;;;3.10;66.10;;;;;;5051647;28;20499;-79
2022/01/27 12:10:56;;;;;;;27.00;12.38;;;3.20;67.00;;;;;;5052335;28;20517;-77
2022/01/27 12:18:59;;;;;;;22.65;10.63;;;3.50;67.80;;;;;;5052795;28;20035;-78
2022/01/27 12:21:41;;;;;;;25.42;12.00;;;3.80;66.60;;;;;;5053405;28;20079;-81
2022/01/27 12:24:13;;;;;;;24.15;12.23;;;4.00;66.20;;;;;;5051409;28;20047;-80
2022/01/27 12:26:44;;;;;;;23.75;11.52;;;3.90;66.40;;;;;;5051981;28;20078;-81
2022/01/27 12:29:19;;;;;;;21.45;11.20;;;3.80;67.00;;;;;;5052473;28;20059;-80
2022/01/27 12:31:46;;;;;;;19.17;10.02;;;3.40;68.20;;;;;;5052660;28;20060;-80
2022/01/27 12:34:14;;;;;;;21.08;10.00;;;3.30;69.50;;;;;;5052910;28;20021;-82
2022/01/27 12:37:02;;;;;;;22.15;10.85;;;3.10;70.70;;;;;;5053450;28;20025;-80
2022/01/27 12:39:31;;;;;;;20.17;10.20;;;2.90;71.80;;;;;;5054059;28;20470;-80
2022/01/27 12:42:00;;;;;;;20.67;10.48;;;2.90;72.40;;;;;;5052637;28;20087;-79
2022/01/27 12:44:28;;;;;;;22.15;10.18;;;2.80;72.90;;;;;;5052800;28;20040;-78
2022/01/27 12:47:08;;;;;;;24.08;11.55;;;2.70;73.40;;;;;;5052668;28;20025;-82
2022/01/27 12:49:41;;;;;;;21.25;11.73;;;2.70;73.80;;;;;;5053142;28;20401;-80
2022/01/27 12:52:09;;;;;;;21.38;10.35;;;2.90;73.90;;;;;;5053056;28;20032;-81
2022/01/27 12:54:37;;;;;;;20.80;10.30;;;3.10;73.00;;;;;;5052664;28;20425;-81
2022/01/27 12:57:04;;;;;;;22.13;10.52;;;3.20;71.90;;;;;;5052525;28;20172;-82
2022/01/27 12:59:33;;;;;;;19.83;10.23;;;3.20;72.10;;;;;;5052800;28;20053;-80
2022/01/27 13:02:09;;;;;;;19.25;10.57;;;3.60;77.30;;;;;;5051449;28;20090;-80
2022/01/27 13:04:37;;;;;;;20.25;10.40;;;3.70;70.80;;;;;;5052626;28;20137;-82
2022/01/27 13:07:03;;;;;;;19.33;10.15;;;3.70;71.10;;;;;;5051196;28;20017;-80
2022/01/27 13:09:31;;;;;;;23.55;10.65;;;3.60;71.00;;;;;;5052931;28;20025;-81
2022/01/27 13:11:58;;;;;;;22.42;11.70;;;3.70;71.60;;;;;;5052846;28;20025;-81
2022/01/27 13:14:25;;;;;;;20.42;10.85;;;3.60;70.70;;;;;;5053574;28;20028;-82
2022/01/27 13:16:57;;;;;;;20.48;10.25;;;3.70;71.10;;;;;;5056508;28;20096;-81
2022/01/27 13:19:43;;;;;;;22.63;12.32;;;3.50;72.50;;;;;;5055268;28;20057;-80
2022/01/27 13:22:15;;;;;;;22.60;10.95;;;3.70;71.90;;;;;;5054814;28;20413;-80
2022/01/27 13:24:50;;;;;;;22.67;11.48;;;3.50;71.70;;;;;;5055849;28;20040;-81
2022/01/27 13:27:16;;;;;;;19.33;10.13;;;3.60;72.10;;;;;;5056162;28;20035;-81
2022/01/27 13:29:46;;;;;;;18.58;9.88;;;4.00;72.40;;;;;;5056288;28;20037;-82